Time;durP1;ratioP1;P1;durP2;ratioP2;P2;SDS_P1;SDS_P2;PMS_P1;PMS_P2;Temp;Humidity;BMP_temperature;BMP_pressure;BME280_temperature;BME280_humidity;BME280_pressure;Samples;Min_cycle;Max_cycle;Signal;HPM_P1;HPM_P2
2023/05/15 00:00:09;;;;;;;3.30;2.42;;;;;;;22.51;53.75;98655.19;5223875;28;20060;-55
2023/05/15 00:03:04;;;;;;;4.07;2.25;;;;;;;22.59;53.58;98654.06;5222739;28;20079;-56
2023/05/15 00:05:55;;;;;;;2.78;2.22;;;;;;;22.57;53.44;98656.16;5223540;28;20076;-59
2023/05/15 00:08:46;;;;;;;3.38;2.78;;;;;;;22.55;53.60;98651.00;5223841;28;20049;-57
2023/05/15 00:11:36;;;;;;;2.58;2.13;;;;;;;22.56;53.49;98659.91;5222855;28;20056;-58
2023/05/15 00:14:25;;;;;;;2.80;2.35;;;;;;;22.56;53.51;98654.50;5222944;28;20060;-58
2023/05/15 00:17:15;;;;;;;3.60;2.30;;;;;;;22.54;53.52;98664.72;5202427;28;20060;-58
2023/05/15 00:20:06;;;;;;;2.42;2.22;;;;;;;22.54;53.37;98649.31;5202678;28;20426;-58
2023/05/15 00:22:57;;;;;;;3.35;2.58;;;;;;;22.56;53.47;98665.31;5201993;28;20072;-59
2023/05/15 00:25:47;;;;;;;2.63;2.00;;;;;;;22.54;53.54;98667.41;5213387;28;20053;-58
2023/05/15 00:28:37;;;;;;;4.53;2.30;;;;;;;22.54;53.50;98667.41;5223346;28;20553;-57
2023/05/15 00:31:27;;;;;;;2.88;2.33;;;;;;;22.54;53.63;98664.72;5223234;28;20060;-56
2023/05/15 00:34:18;;;;;;;2.70;2.22;;;;;;;22.53;53.45;98663.91;5222644;28;20546;-58
2023/05/15 00:37:08;;;;;;;2.70;2.20;;;;;;;22.55;53.39;98659.09;5222017;28;20276;-58
2023/05/15 00:39:58;;;;;;;3.45;2.13;;;;;;;22.57;53.28;98648.03;5223197;28;20103;-58
2023/05/15 00:42:49;;;;;;;3.33;2.33;;;;;;;22.56;53.13;98647.22;5222506;28;20098;-58
2023/05/15 00:45:41;;;;;;;2.22;2.00;;;;;;;22.54;53.32;98646.63;5222868;28;20162;-57
2023/05/15 00:48:32;;;;;;;2.45;2.10;;;;;;;22.49;53.44;98641.91;5223193;28;20576;-56
2023/05/15 00:51:22;;;;;;;3.53;1.98;;;;;;;22.54;53.25;98654.72;5223177;28;20064;-56
2023/05/15 00:54:13;;;;;;;3.22;2.55;;;;;;;22.56;53.18;98655.34;5222348;28;20134;-57
2023/05/15 00:57:05;;;;;;;2.40;1.92;;;;;;;22.57;53.22;98664.25;5222912;28;20070;-57
2023/05/15 00:59:56;;;;;;;3.13;2.20;;;;;;;22.55;53.02;98671.75;5221795;28;20499;-57
2023/05/15 01:02:46;;;;;;;2.35;2.10;;;;;;;22.54;53.12;98664.72;5215969;28;20050;-57
2023/05/15 01:05:37;;;;;;;4.65;2.60;;;;;;;22.54;53.10;98676.34;5213575;28;20498;-57
2023/05/15 01:08:42;;;;;;;4.18;2.40;;;;;;;22.57;53.25;98680.47;5227078;28;20059;-57
2023/05/15 01:11:35;;;;;;;3.13;2.20;;;;;;;22.55;53.11;98677.16;5226271;28;20499;-57
2023/05/15 01:14:26;;;;;;;1.70;1.60;;;;;;;22.51;53.07;98664.09;5224809;28;20422;-57
2023/05/15 01:17:16;;;;;;;3.85;2.25;;;;;;;22.57;53.01;98669.66;5226548;28;20066;-57
2023/05/15 01:20:09;;;;;;;2.88;2.20;;;;;;;22.54;53.17;98679.03;5225606;28;20091;-58
2023/05/15 01:23:19;;;;;;;2.30;2.10;;;;;;;22.52;53.09;98663.06;5224842;28;20547;-56
2023/05/15 01:26:44;;;;;;;3.05;2.63;;;;;;;22.56;53.08;98662.63;5226438;28;20052;-57
2023/05/15 01:29:56;;;;;;;2.47;2.22;;;;;;;22.56;53.02;98665.31;5226349;28;20053;-57
2023/05/15 01:33:04;;;;;;;3.10;2.00;;;;;;;22.52;53.09;98663.06;5225853;28;20167;-55
2023/05/15 01:36:06;;;;;;;3.78;2.30;;;;;;;22.51;52.97;98660.59;5225323;28;20052;-57
2023/05/15 01:39:01;;;;;;;2.28;2.08;;;;;;;22.51;53.06;98666.00;5226290;28;20052;-57
2023/05/15 01:42:01;;;;;;;2.70;2.10;;;;;;;22.55;53.10;98653.69;5225982;28;20049;-57
2023/05/15 01:44:54;;;;;;;4.75;2.28;;;;;;;22.53;52.97;98658.50;5225967;28;20099;-58
2023/05/15 01:47:46;;;;;;;2.72;2.00;;;;;;;22.54;52.90;98665.53;5226331;28;20056;-55
2023/05/15 01:50:38;;;;;;;2.47;2.28;;;;;;;22.52;53.05;98659.56;5225977;28;20053;-56
2023/05/15 01:53:33;;;;;;;2.25;1.95;;;;;;;22.56;52.88;98662.63;5224779;28;20059;-55
2023/05/15 01:56:26;;;;;;;3.53;2.53;;;;;;;22.58;52.93;98657.78;5225021;28;20087;-58
2023/05/15 01:59:18;;;;;;;2.10;1.92;;;;;;;22.56;53.02;98654.50;5224686;28;20093;-58
2023/05/15 02:02:09;;;;;;;2.97;2.08;;;;;;;22.52;52.97;98657.66;5225392;28;20178;-58
2023/05/15 02:05:01;;;;;;;2.38;1.90;;;;;;;22.51;52.79;98657.88;5225907;28;20059;-57
2023/05/15 02:07:52;;;;;;;2.60;2.10;;;;;;;22.46;52.92;98658.59;5224843;28;20126;-58
2023/05/15 02:10:43;;;;;;;2.10;1.90;;;;;;;22.49;53.06;98668.94;5224553;28;20071;-55
2023/05/15 02:13:34;;;;;;;2.80;2.20;;;;;;;22.48;52.91;98667.28;5224477;28;20162;-58
2023/05/15 02:16:24;;;;;;;2.53;2.33;;;;;;;22.44;53.01;98649.88;5224758;28;20253;-57
2023/05/15 02:19:14;;;;;;;2.35;2.15;;;;;;;22.48;52.92;98656.50;5224583;28;20458;-57
2023/05/15 02:22:05;;;;;;;3.08;2.00;;;;;;;22.51;52.96;98661.41;5225335;28;20049;-57
2023/05/15 02:24:56;;;;;;;2.38;1.85;;;;;;;22.50;52.96;98664.34;5225471;28;20052;-57
2023/05/15 02:27:55;;;;;;;2.17;1.95;;;;;;;22.50;52.90;98661.66;5225416;28;20549;-58
2023/05/15 02:30:53;;;;;;;3.40;2.35;;;;;;;22.50;52.82;98661.66;5225647;28;20059;-57
2023/05/15 02:34:17;;;;;;;2.67;2.17;;;;;;;22.49;52.79;98668.94;5224638;28;20067;-58
2023/05/15 02:37:12;;;;;;;2.20;2.00;;;;;;;22.50;52.72;98667.06;5224409;28;20072;-56
2023/05/15 02:40:09;;;;;;;2.00;1.80;;;;;;;22.50;52.71;98672.47;5225233;28;20562;-56
2023/05/15 02:43:02;;;;;;;2.30;2.05;;;;;;;22.50;52.63;98662.47;5222753;28;20055;-58
2023/05/15 02:45:55;;;;;;;2.75;1.98;;;;;;;22.51;52.67;98657.88;5224209;28;20119;-58
2023/05/15 02:48:46;;;;;;;2.10;1.90;;;;;;;22.50;52.56;98657.06;5224759;28;20106;-57
2023/05/15 02:51:36;;;;;;;2.50;2.08;;;;;;;22.50;52.54;98659.75;5223873;28;20056;-58
2023/05/15 02:54:26;;;;;;;2.50;2.05;;;;;;;22.50;52.60;98657.06;5223674;28;20107;-57
2023/05/15 02:57:16;;;;;;;2.75;2.17;;;;;;;22.46;52.79;98653.19;5219717;28;20052;-58
2023/05/15 03:00:10;;;;;;;1.65;1.55;;;;;;;22.49;52.56;98658.13;5224640;28;20048;-59
2023/05/15 03:03:00;;;;;;;2.35;2.00;;;;;;;22.51;52.64;98664.09;5223063;28;20045;-58
2023/05/15 03:05:51;;;;;;;2.25;2.05;;;;;;;22.50;52.38;98659.75;5218071;28;20049;-58
2023/05/15 03:08:41;;;;;;;2.83;2.03;;;;;;;22.50;52.68;98653.53;5224504;28;20057;-57
2023/05/15 03:11:31;;;;;;;2.03;1.90;;;;;;;22.50;52.68;98656.25;5223824;28;20562;-57
2023/05/15 03:14:22;;;;;;;2.22;2.00;;;;;;;22.49;52.76;98652.72;5236496;28;20056;-56
2023/05/15 03:17:11;;;;;;;2.55;2.05;;;;;;;22.47;52.49;98660.22;5224399;28;20068;-58
2023/05/15 03:20:03;;;;;;;2.00;1.88;;;;;;;22.47;52.51;98654.81;5224256;28;20053;-56
2023/05/15 03:22:53;;;;;;;2.72;1.95;;;;;;;22.44;52.61;98647.16;5222271;28;20128;-55
2023/05/15 03:25:43;;;;;;;2.47;1.98;;;;;;;22.42;52.64;98645.78;5223897;28;20506;-57
2023/05/15 03:28:34;;;;;;;2.10;2.00;;;;;;;22.48;52.62;98655.63;5223945;28;20059;-56
2023/05/15 03:31:24;;;;;;;1.95;1.52;;;;;;;22.48;52.63;98650.25;5224260;28;20064;-57
2023/05/15 03:34:14;;;;;;;1.92;1.75;;;;;;;22.48;52.46;98655.63;5223373;28;20141;-55
2023/05/15 03:37:04;;;;;;;2.40;2.20;;;;;;;22.46;52.46;98649.66;5203538;28;20053;-57
2023/05/15 03:39:54;;;;;;;2.08;1.73;;;;;;;22.45;52.39;98651.53;5202445;28;20057;-57
2023/05/15 03:42:44;;;;;;;1.88;1.77;;;;;;;22.33;52.45;98633.63;5202391;28;20049;-52
2023/05/15 03:45:35;;;;;;;2.33;2.00;;;;;;;22.41;52.59;98650.31;5212897;28;20421;-53
2023/05/15 03:48:25;;;;;;;2.17;1.98;;;;;;;22.44;52.50;98657.97;5222354;28;20507;-55
2023/05/15 03:51:15;;;;;;;2.30;2.00;;;;;;;22.45;52.43;98659.66;5223924;28;20691;-55
2023/05/15 03:54:05;;;;;;;2.22;1.98;;;;;;;22.44;52.46;98659.84;5223062;28;20049;-52
2023/05/15 03:56:55;;;;;;;2.33;1.77;;;;;;;22.41;52.56;98661.13;5236085;28;20078;-57
2023/05/15 03:59:46;;;;;;;3.58;1.80;;;;;;;22.41;52.53;98663.84;5221783;28;20052;-52
2023/05/15 04:02:36;;;;;;;2.35;2.00;;;;;;;22.42;52.24;98661.97;5222720;28;20052;-56
2023/05/15 04:05:27;;;;;;;3.00;1.77;;;;;;;22.33;52.38;98650.66;5223250;28;20503;-52
2023/05/15 04:08:17;;;;;;;2.20;2.00;;;;;;;22.38;52.54;98652.66;5203205;28;20180;-58
2023/05/15 04:11:09;;;;;;;2.08;1.83;;;;;;;22.37;52.36;98659.13;5202176;28;20694;-55
2023/05/15 04:13:59;;;;;;;2.08;1.88;;;;;;;22.37;52.52;98659.94;5202274;28;20060;-52
2023/05/15 04:16:49;;;;;;;2.00;1.83;;;;;;;22.42;52.31;98668.22;5221779;28;20064;-52
2023/05/15 04:19:40;;;;;;;1.98;1.77;;;;;;;22.38;52.26;98667.00;5223176;28;20049;-55
2023/05/15 04:22:32;;;;;;;2.35;1.90;;;;;;;22.35;52.65;98662.06;5202286;28;20049;-52
2023/05/15 04:25:23;;;;;;;2.10;1.75;;;;;;;22.40;52.42;98664.06;5210043;28;20132;-55
2023/05/15 04:28:14;;;;;;;2.30;1.95;;;;;;;22.38;52.32;98661.59;5223425;28;20251;-55
2023/05/15 04:31:04;;;;;;;1.98;1.77;;;;;;;22.40;52.59;98653.28;5223565;28;20071;-55
2023/05/15 04:33:54;;;;;;;2.20;1.90;;;;;;;22.37;52.33;98653.72;5222285;28;20052;-53
2023/05/15 04:36:44;;;;;;;1.75;1.65;;;;;;;22.36;52.64;98658.31;5220423;28;20057;-54
2023/05/15 04:39:34;;;;;;;2.53;2.22;;;;;;;22.34;52.41;98648.78;5223394;28;20503;-57
2023/05/15 04:42:25;;;;;;;2.35;1.80;;;;;;;22.33;52.52;98655.25;5225110;28;20111;-59
2023/05/15 04:45:16;;;;;;;2.22;1.88;;;;;;;22.35;52.35;98653.97;5226460;28;20437;-50
2023/05/15 04:48:06;;;;;;;3.30;2.10;;;;;;;22.17;52.45;98676.41;5226192;28;20186;-47
2023/05/15 04:50:57;;;;;;;3.88;1.65;;;;;;;22.22;52.10;98673.03;5224720;28;20072;-47
2023/05/15 04:53:46;;;;;;;2.20;2.00;;;;;;;22.34;52.14;98671.19;5221804;28;20053;-48
2023/05/15 04:56:36;;;;;;;2.13;1.90;;;;;;;22.43;52.01;98669.84;5226374;28;20519;-48
2023/05/15 04:59:27;;;;;;;2.63;1.95;;;;;;;22.48;52.04;98674.56;5226106;28;20060;-48
2023/05/15 05:02:22;;;;;;;2.40;1.92;;;;;;;22.54;52.08;98664.72;5225664;28;20126;-49
2023/05/15 05:05:13;;;;;;;5.47;2.00;;;;;;;22.57;52.07;98670.47;5225943;28;20055;-51
2023/05/15 05:08:04;;;;;;;2.85;2.00;;;;;;;22.60;52.26;98671.91;5224921;28;20134;-46
2023/05/15 05:10:56;;;;;;;3.15;2.40;;;;;;;22.65;52.17;98669.31;5226666;28;20077;-48
2023/05/15 05:13:46;;;;;;;4.93;2.25;;;;;;;22.65;52.22;98666.63;5225690;28;20102;-48
2023/05/15 05:16:36;;;;;;;4.07;2.65;;;;;;;22.68;52.34;98666.16;5226074;28;20556;-48
2023/05/15 05:19:29;;;;;;;2.92;2.15;;;;;;;22.68;52.14;98658.06;5225108;28;20166;-51
2023/05/15 05:22:20;;;;;;;2.97;2.22;;;;;;;22.70;52.14;98667.59;5223547;28;20182;-48
2023/05/15 05:25:10;;;;;;;2.53;2.10;;;;;;;22.70;52.24;98678.41;5225325;28;20102;-46
2023/05/15 05:28:00;;;;;;;7.53;2.28;;;;;;;22.71;52.47;98674.66;5224447;28;20044;-46
2023/05/15 05:30:50;;;;;;;6.15;1.95;;;;;;;22.71;52.52;98673.81;5224403;28;20063;-48
2023/05/15 05:33:41;;;;;;;4.78;2.80;;;;;;;22.73;52.72;98679.81;5223325;28;20060;-50
2023/05/15 05:36:31;;;;;;;4.90;2.60;;;;;;;22.76;52.41;98682.06;5211652;28;20045;-47
2023/05/15 05:39:22;;;;;;;4.13;2.08;;;;;;;22.72;52.54;98673.59;5202946;28;20072;-50
2023/05/15 05:42:11;;;;;;;4.80;2.10;;;;;;;22.75;52.42;98683.97;5201398;28;20427;-43
2023/05/15 05:45:02;;;;;;;5.65;2.15;;;;;;;22.77;52.25;98674.78;5200753;28;20099;-48
2023/05/15 05:47:56;;;;;;;4.95;2.38;;;;;;;22.81;52.25;98679.47;5164932;28;20551;-47
2023/05/15 05:50:46;;;;;;;6.38;2.50;;;;;;;22.77;52.22;98681.00;5171658;28;20054;-49
2023/05/15 05:53:36;;;;;;;7.05;2.20;;;;;;;22.81;52.28;98682.19;5185753;28;20054;-49
2023/05/15 05:56:28;;;;;;;3.28;2.28;;;;;;;22.81;52.49;98676.78;5194749;28;20715;-46
2023/05/15 05:59:19;;;;;;;4.75;2.35;;;;;;;22.83;52.16;98677.38;5167658;28;20072;-50
2023/05/15 06:02:10;;;;;;;2.90;2.28;;;;;;;22.82;52.46;98681.16;5167370;28;20053;-48
2023/05/15 06:05:00;;;;;;;5.15;2.40;;;;;;;22.74;52.26;98681.47;5168018;28;20058;-51
2023/05/15 06:07:51;;;;;;;7.63;2.70;;;;;;;22.68;52.13;98676.97;5174575;28;20053;-48
2023/05/15 06:10:41;;;;;;;3.75;2.17;;;;;;;22.70;52.22;98674.88;5179864;28;21610;-46
2023/05/15 06:13:31;;;;;;;4.95;2.35;;;;;;;22.60;51.57;98656.50;5178486;28;20116;-45
2023/05/15 06:16:22;;;;;;;2.97;2.08;;;;;;;22.84;51.67;98681.72;5177129;28;20701;-47
2023/05/15 06:19:12;;;;;;;6.55;2.30;;;;;;;22.86;51.71;98681.50;5176227;28;20536;-47
2023/05/15 06:22:02;;;;;;;4.65;2.50;;;;;;;22.87;51.41;98686.69;5170251;28;20054;-48
2023/05/15 06:24:52;;;;;;;3.35;2.40;;;;;;;22.88;51.17;98688.34;5165975;28;20077;-49
2023/05/15 06:27:43;;;;;;;4.28;2.75;;;;;;;22.87;51.00;98686.69;5166921;28;20062;-48
2023/05/15 06:30:33;;;;;;;4.82;2.60;;;;;;;22.80;50.32;98674.31;5173309;28;20089;-46
2023/05/15 06:33:24;;;;;;;4.20;2.75;;;;;;;22.89;50.56;98686.47;5180307;28;20058;-46
2023/05/15 06:36:15;;;;;;;3.60;2.53;;;;;;;22.49;50.84;98687.03;5170186;28;20058;-48
2023/05/15 06:39:05;;;;;;;9.60;2.80;;;;;;;22.36;51.96;98679.91;5165031;28;20068;-48
2023/05/15 06:42:00;;;;;;;4.25;2.40;;;;;;;22.44;52.15;98676.88;5172905;28;20049;-50
2023/05/15 06:44:52;;;;;;;15.38;2.58;;;;;;;22.44;52.48;98686.88;5172737;28;20056;-49
2023/05/15 06:47:42;;;;;;;11.48;3.20;;;;;;;22.40;53.13;98688.38;5163904;28;20054;-45
2023/05/15 06:50:32;;;;;;;13.65;3.17;;;;;;;22.49;52.83;98687.03;5161660;28;20087;-44
2023/05/15 06:53:22;;;;;;;13.18;2.95;;;;;;;22.50;52.90;98678.69;5164410;28;20068;-45
2023/05/15 06:56:12;;;;;;;8.35;2.65;;;;;;;22.50;52.48;98688.66;5168651;28;20156;-44
2023/05/15 06:59:03;;;;;;;9.88;3.65;;;;;;;22.41;52.41;98661.13;5169766;28;20118;-44
2023/05/15 07:01:53;;;;;;;12.45;2.63;;;;;;;22.54;52.75;98686.34;5174591;28;20077;-45
2023/05/15 07:04:43;;;;;;;12.10;3.13;;;;;;;22.48;53.46;98683.50;5167162;28;20054;-45
2023/05/15 07:07:33;;;;;;;9.10;2.90;;;;;;;22.50;52.62;98692.19;5170315;28;20064;-58
2023/05/15 07:10:23;;;;;;;7.05;2.80;;;;;;;22.56;52.18;98684.22;5176968;28;20057;-44
2023/05/15 07:13:19;;;;;;;8.38;2.47;;;;;;;22.49;52.18;98663.53;5176100;28;20049;-45
2023/05/15 07:16:10;;;;;;;6.90;3.00;;;;;;;22.62;53.02;98686.84;5167157;28;20184;-44
2023/05/15 07:19:00;;;;;;;8.65;3.05;;;;;;;22.58;53.10;98682.09;5167615;28;20420;-45
2023/05/15 07:21:50;;;;;;;8.80;2.83;;;;;;;22.63;53.12;98683.09;5161682;28;20058;-45
2023/05/15 07:24:40;;;;;;;6.47;2.50;;;;;;;22.63;53.05;98684.97;5172459;28;20379;-44
2023/05/15 07:27:30;;;;;;;7.43;2.50;;;;;;;22.62;53.09;98681.44;5167968;28;20073;-43
2023/05/15 07:30:21;;;;;;;4.15;2.50;;;;;;;22.61;53.25;98681.66;5175586;28;20435;-43
2023/05/15 07:33:12;;;;;;;7.28;2.67;;;;;;;22.65;53.25;98685.53;5170516;28;20506;-44
2023/05/15 07:36:02;;;;;;;6.07;2.55;;;;;;;22.57;53.13;98672.38;5171699;28;20056;-44
2023/05/15 07:38:52;;;;;;;8.20;3.33;;;;;;;22.66;53.17;98687.22;5170378;28;20770;-45
2023/05/15 07:41:42;;;;;;;6.00;2.70;;;;;;;22.68;53.08;98691.34;5167044;28;20061;-44
2023/05/15 07:44:32;;;;;;;3.85;2.60;;;;;;;22.67;53.20;98691.56;5166090;28;20635;-43
2023/05/15 07:47:22;;;;;;;7.63;3.53;;;;;;;22.65;53.12;98677.44;5173438;28;20058;-44
2023/05/15 07:50:13;;;;;;;3.65;2.17;;;;;;;22.62;53.29;98683.31;5169556;28;20613;-43
2023/05/15 07:53:04;;;;;;;6.45;2.92;;;;;;;22.63;53.37;98680.38;5169278;28;20058;-44
2023/05/15 07:55:54;;;;;;;6.72;2.67;;;;;;;22.66;53.28;98677.22;5162481;28;20060;-45
2023/05/15 07:58:44;;;;;;;8.13;2.80;;;;;;;22.62;53.45;98677.91;5163254;28;20143;-43
2023/05/15 08:01:34;;;;;;;6.55;2.13;;;;;;;22.65;53.65;98680.97;5164011;28;20385;-45
2023/05/15 08:04:24;;;;;;;5.68;2.75;;;;;;;22.52;53.40;98667.66;5174275;28;20068;-45
2023/05/15 08:07:14;;;;;;;8.13;2.70;;;;;;;22.57;53.46;98681.28;5172854;28;20054;-44
2023/05/15 08:10:05;;;;;;;4.22;2.20;;;;;;;22.61;53.17;98684.34;5170351;28;20444;-43
2023/05/15 08:12:56;;;;;;;3.83;2.40;;;;;;;22.68;53.42;98685.09;5164654;28;20050;-43
2023/05/15 08:15:46;;;;;;;5.38;2.72;;;;;;;22.60;53.22;98658.41;5165270;28;20147;-45
2023/05/15 08:18:36;;;;;;;5.22;2.30;;;;;;;22.71;53.28;98671.13;5164535;28;20057;-43
2023/05/15 08:21:26;;;;;;;5.35;2.40;;;;;;;22.68;53.09;98658.06;5164320;28;20576;-41
2023/05/15 08:24:16;;;;;;;4.68;2.25;;;;;;;22.71;53.27;98663.84;5165495;28;20117;-43
2023/05/15 08:27:08;;;;;;;5.15;2.13;;;;;;;22.78;53.22;98669.16;5168477;28;20139;-45
2023/05/15 08:29:58;;;;;;;3.70;2.05;;;;;;;22.69;53.41;98662.44;5168144;28;20259;-44
2023/05/15 08:32:48;;;;;;;5.03;2.42;;;;;;;22.74;53.05;98666.06;5171987;28;20112;-44
2023/05/15 08:35:39;;;;;;;3.88;2.17;;;;;;;22.74;53.24;98670.66;5173557;28;20424;-44
2023/05/15 08:38:30;;;;;;;6.43;2.17;;;;;;;22.57;53.42;98640.75;5170808;28;20072;-44
2023/05/15 08:41:30;;;;;;;3.22;2.17;;;;;;;22.62;53.59;98645.50;5170846;28;20147;-45
2023/05/15 08:44:29;;;;;;;5.85;2.20;;;;;;;22.71;53.14;98660.31;5163635;28;20128;-45
2023/05/15 08:47:19;;;;;;;4.75;2.58;;;;;;;22.71;53.35;98661.16;5162822;28;20065;-43
2023/05/15 08:50:15;;;;;;;4.30;2.00;;;;;;;22.76;53.17;98663.16;5161681;28;20431;-45
2023/05/15 08:53:07;;;;;;;3.25;2.17;;;;;;;22.78;53.09;98666.47;5163585;28;20510;-44
2023/05/15 08:55:57;;;;;;;7.88;2.70;;;;;;;22.57;53.08;98631.84;5172568;28;20062;-45
2023/05/15 08:58:47;;;;;;;4.93;2.10;;;;;;;22.70;53.11;98647.84;5168802;28;20064;-43
2023/05/15 09:01:37;;;;;;;7.78;2.05;;;;;;;22.77;53.16;98653.97;5175203;28;20427;-45
2023/05/15 09:04:28;;;;;;;4.18;2.13;;;;;;;22.79;53.25;98653.75;5169358;28;20084;-45
2023/05/15 09:07:19;;;;;;;5.68;2.30;;;;;;;22.78;53.09;98644.84;5164736;28;20159;-45
2023/05/15 09:10:10;;;;;;;4.13;1.95;;;;;;;22.79;53.09;98646.47;5162964;28;20050;-44
2023/05/15 09:13:01;;;;;;;4.20;2.03;;;;;;;22.83;53.17;98649.53;5161375;28;20038;-44
2023/05/15 09:15:51;;;;;;;3.97;2.03;;;;;;;22.85;53.24;98640.16;5169783;28;20062;-44
2023/05/15 09:18:42;;;;;;;3.72;2.45;;;;;;;22.81;53.24;98649.75;5163274;28;20116;-44
2023/05/15 09:21:33;;;;;;;5.47;2.03;;;;;;;22.82;53.14;98634.38;5164883;28;20454;-45
2023/05/15 09:24:27;;;;;;;4.30;2.20;;;;;;;22.84;53.25;98645.78;5163796;28;20123;-45
2023/05/15 09:27:18;;;;;;;7.32;2.22;;;;;;;22.80;53.21;98642.72;5168952;28;20069;-43
2023/05/15 09:30:09;;;;;;;5.78;2.40;;;;;;;22.76;53.31;98633.41;5177668;28;20175;-44
2023/05/15 09:33:02;;;;;;;3.67;1.98;;;;;;;22.70;53.30;98615.41;5178161;28;20053;-44
2023/05/15 09:35:52;;;;;;;6.07;2.13;;;;;;;22.79;53.29;98640.25;5169791;28;20531;-44
2023/05/15 09:38:46;;;;;;;3.55;1.88;;;;;;;22.76;53.29;98625.31;5164913;28;20068;-44
2023/05/15 09:41:40;;;;;;;;;;;;;;;22.78;53.37;98638.59;5169740;28;20073;-52
2023/05/15 09:44:30;;;;;;;5.97;2.40;;;;;;;22.77;53.36;98634.25;5164582;28;20379;-45
2023/05/15 09:47:21;;;;;;;5.25;2.20;;;;;;;22.77;53.27;98624.25;5166880;28;20084;-44
2023/05/15 09:50:11;;;;;;;3.75;2.10;;;;;;;22.76;53.22;98630.72;5168519;28;20119;-44
2023/05/15 09:53:02;;;;;;;3.35;2.00;;;;;;;22.68;53.36;98620.22;5183902;28;20147;-44
2023/05/15 09:55:53;;;;;;;4.95;2.17;;;;;;;22.73;53.35;98628.47;5189103;28;20183;-45
2023/05/15 09:58:57;;;;;;;4.07;2.10;;;;;;;22.72;53.54;98633.06;5179034;28;20194;-44
2023/05/15 10:01:50;;;;;;;3.08;1.85;;;;;;;22.71;53.43;98625.16;5176137;28;20045;-45
2023/05/15 10:04:40;;;;;;;3.78;2.28;;;;;;;22.73;51.86;98621.19;5172091;28;20623;-44
2023/05/15 10:07:32;;;;;;;3.22;1.90;;;;;;;22.71;52.03;98617.91;5177581;28;20060;-45
2023/05/15 10:10:23;;;;;;;3.65;1.73;;;;;;;22.80;52.56;98612.16;5174040;28;20072;-44
2023/05/15 10:13:13;;;;;;;2.60;2.00;;;;;;;22.81;52.70;98617.31;5173081;28;20693;-44
2023/05/15 10:16:04;;;;;;;4.93;2.10;;;;;;;22.69;52.42;98595.69;5174766;28;20080;-44
2023/05/15 10:18:56;;;;;;;3.03;1.90;;;;;;;22.82;52.67;98613.56;5182943;28;20050;-44
2023/05/15 10:21:47;;;;;;;2.85;2.05;;;;;;;22.70;52.83;98589.22;5175276;28;20054;-45
2023/05/15 10:24:42;;;;;;;5.30;2.25;;;;;;;22.84;52.89;98605.22;5183514;28;20049;-44
2023/05/15 10:27:34;;;;;;;9.15;5.18;;;;;;;22.61;52.93;98560.88;5208635;22;20592;-74
2023/05/15 10:30:25;;;;;;;42.80;21.60;;;;;;;22.85;53.00;98602.31;5230978;28;20053;-73
2023/05/15 10:33:18;;;;;;;58.95;32.00;;;;;;;22.85;53.49;98588.78;5240601;28;20048;-74
2023/05/15 10:36:09;;;;;;;74.35;44.45;;;;;;;22.88;53.42;98585.63;5241669;28;20117;-73
2023/05/15 10:39:02;;;;;;;70.20;40.20;;;;;;;22.86;53.60;98585.00;5232169;28;20106;-73
2023/05/15 10:41:54;;;;;;;60.50;32.40;;;;;;;22.84;53.77;98572.78;5263163;22;20565;-44
2023/05/15 10:44:44;;;;;;;55.65;31.85;;;;;;;22.73;53.71;98569.00;5229702;28;20044;-42
2023/05/15 10:47:36;;;;;;;53.40;30.67;;;;;;;22.84;53.54;98567.38;5222812;28;20123;-45
2023/05/15 10:50:26;;;;;;;47.60;28.27;;;;;;;22.85;53.03;98563.63;5209124;28;20048;-44
2023/05/15 10:53:18;;;;;;;44.33;27.85;;;;;;;22.75;53.17;98550.69;5206219;28;20045;-44
2023/05/15 10:56:13;;;;;;;47.65;26.50;;;;;;;22.67;53.50;98527.53;5207516;28;20048;-43
2023/05/15 10:59:09;;;;;;;42.78;24.58;;;;;;;22.41;53.19;98482.84;5208625;28;20056;-44
2023/05/15 11:02:24;;;;;;;43.55;24.75;;;;;;;22.90;52.92;98552.94;5208942;28;20071;-44
2023/05/15 11:05:14;;;;;;;40.75;25.70;;;;;;;22.92;53.14;98545.41;5207838;28;20498;-45
2023/05/15 11:08:14;;;;;;;41.03;25.10;;;;;;;22.92;53.02;98550.81;5209019;28;20507;-44
2023/05/15 11:11:04;;;;;;;36.05;21.95;;;;;;;22.92;52.94;98551.66;5210556;28;20092;-42
2023/05/15 11:14:04;;;;;;;30.38;16.42;;;;;;;21.96;45.41;98529.19;5207155;28;20064;-46
2023/05/15 11:16:54;;;;;;;8.15;3.05;;;;;;;21.10;43.49;98525.63;5201987;28;20056;-70
2023/05/15 11:19:47;;;;;;;4.78;3.50;;;;;;;19.83;44.89;98524.91;5209559;28;20063;-72
2023/05/15 11:22:38;;;;;;;4.10;3.25;;;;;;;20.84;41.62;98526.72;5203507;28;20198;-72
2023/05/15 11:25:31;;;;;;;4.10;3.67;;;;;;;21.40;42.82;98524.94;5212757;28;20182;-71
2023/05/15 11:28:23;;;;;;;6.57;3.15;;;;;;;21.02;41.72;98517.00;5206514;28;20107;-72
2023/05/15 11:31:14;;;;;;;7.10;4.20;;;;;;;20.40;45.42;98506.97;5206792;28;20051;-71
2023/05/15 11:34:04;;;;;;;4.53;4.13;;;;;;;21.20;45.29;98521.59;5205134;28;20115;-71
2023/05/15 11:36:58;;;;;;;7.32;3.72;;;;;;;20.92;43.83;98512.13;5203694;28;20080;-72
2023/05/15 11:39:51;;;;;;;5.72;3.63;;;;;;;21.14;44.03;98514.41;5199989;28;20059;-72
2023/05/15 11:42:59;;;;;;;5.15;3.90;;;;;;;20.09;45.42;98518.53;5198717;28;20067;-72
2023/05/15 11:45:56;;;;;;;7.53;4.13;;;;;;;20.93;45.06;98503.00;5201710;28;20527;-71
2023/05/15 11:48:47;;;;;;;7.13;4.05;;;;;;;20.74;46.00;98495.94;5196395;28;20060;-71
2023/05/15 11:51:41;;;;;;;6.55;3.65;;;;;;;20.12;43.28;98501.97;5205740;28;20068;-72
2023/05/15 11:54:32;;;;;;;6.38;3.65;;;;;;;19.66;45.95;98505.75;5209725;28;20053;-71
2023/05/15 11:57:22;;;;;;;5.13;3.65;;;;;;;20.96;47.28;98499.88;5207014;28;20082;-72
2023/05/15 12:00:13;;;;;;;3.85;3.25;;;;;;;20.84;41.72;98502.47;5205474;28;20053;-70
2023/05/15 12:03:03;;;;;;;6.65;2.88;;;;;;;19.78;44.11;98515.84;5200724;28;20061;-71
2023/05/15 12:05:54;;;;;;;3.85;3.17;;;;;;;20.37;43.33;98509.25;5204172;28;20049;-71
2023/05/15 12:08:52;;;;;;;4.22;3.13;;;;;;;21.98;40.12;98489.28;5204452;28;20060;-71
2023/05/15 12:11:52;;;;;;;;;;;;;;;21.24;40.60;98501.22;5205397;28;20485;-68
2023/05/15 12:14:43;;;;;;;7.07;3.20;;;;;;;20.62;40.43;98506.59;5229492;28;19989;-72
2023/05/15 12:17:35;;;;;;;7.47;3.65;;;;;;;20.31;41.79;98521.72;5202206;28;20303;-71
2023/05/15 12:20:26;;;;;;;13.73;3.53;;;;;;;20.49;41.24;98509.38;5199588;28;20154;-71
2023/05/15 12:23:19;;;;;;;17.05;3.15;;;;;;;20.18;42.28;98532.59;5209486;28;21926;-71
2023/05/15 12:26:09;;;;;;;4.70;2.80;;;;;;;20.61;40.42;98527.31;5213351;28;20182;-69
2023/05/15 12:29:00;;;;;;;5.05;2.40;;;;;;;20.64;40.73;98526.88;5216323;28;20426;-70
2023/05/15 12:31:52;;;;;;;8.35;3.25;;;;;;;20.63;41.24;98521.72;5202770;28;20114;-72
2023/05/15 12:34:43;;;;;;;4.72;2.85;;;;;;;19.68;42.11;98522.50;5201465;28;20448;-70
2023/05/15 12:37:37;;;;;;;5.50;2.90;;;;;;;20.51;42.08;98523.47;5202045;28;20427;-70
2023/05/15 12:40:27;;;;;;;5.50;3.47;;;;;;;20.57;42.87;98515.34;5200231;28;20628;-71
2023/05/15 12:43:17;;;;;;;4.75;3.28;;;;;;;21.25;41.81;98519.84;5201781;28;20064;-71
2023/05/15 12:46:08;;;;;;;5.88;3.88;;;;;;;20.79;43.52;98514.94;5211302;28;20518;-71
2023/05/15 12:48:59;;;;;;;9.00;3.53;;;;;;;20.97;43.43;98506.06;5203571;28;20060;-71
2023/05/15 12:51:49;;;;;;;5.82;3.50;;;;;;;21.47;42.20;98514.06;5199707;28;20064;-70
2023/05/15 12:54:40;;;;;;;10.30;4.00;;;;;;;20.85;42.62;98519.44;5201363;28;20111;-70
2023/05/15 12:57:31;;;;;;;6.55;3.90;;;;;;;20.99;42.37;98522.81;5204822;28;21309;-70
2023/05/15 13:00:22;;;;;;;4.78;3.78;;;;;;;20.85;42.40;98514.06;5194679;28;20144;-70
2023/05/15 13:03:13;;;;;;;6.95;4.20;;;;;;;21.31;42.34;98510.06;5203355;28;20057;-70
2023/05/15 13:06:05;;;;;;;7.18;4.38;;;;;;;21.58;40.58;98519.50;5205790;28;20162;-71
2023/05/15 13:08:57;;;;;;;6.88;3.75;;;;;;;21.45;41.03;98511.56;5213924;28;20053;-71
2023/05/15 13:11:48;;;;;;;9.40;4.30;;;;;;;21.48;40.83;98507.59;5214822;28;20061;-71
2023/05/15 13:14:40;;;;;;;4.53;4.13;;;;;;;21.81;42.41;98491.00;5204237;28;20057;-70
2023/05/15 13:17:33;;;;;;;7.45;3.83;;;;;;;22.16;40.86;98496.56;5207464;28;20056;-71
2023/05/15 13:20:24;;;;;;;6.90;3.83;;;;;;;22.18;42.98;98496.31;5204540;28;20338;-71
2023/05/15 13:23:16;;;;;;;5.47;3.53;;;;;;;21.12;42.66;98495.75;5205278;28;20045;-69
2023/05/15 13:26:06;;;;;;;5.90;3.28;;;;;;;20.00;41.81;98497.50;5205333;28;20470;-71